Time;durP1;ratioP1;P1;durP2;ratioP2;P2;SDS_P1;SDS_P2;PMS_P1;PMS_P2;Temp;Humidity;BMP_temperature;BMP_pressure;BME280_temperature;BME280_humidity;BME280_pressure;Samples;Min_cycle;Max_cycle;Signal;HPM_P1;HPM_P2
2022/04/30 00:00:40;;;;;;;7.70;2.53;;;8.50;99.90;;;;;;4990393;28;20072;-73
2022/04/30 00:03:07;;;;;;;14.68;3.00;;;8.50;99.90;;;;;;5005034;28;20468;-73
2022/04/30 00:05:34;;;;;;;7.53;3.83;;;8.50;99.90;;;;;;5006293;28;20120;-73
2022/04/30 00:08:01;;;;;;;16.90;3.17;;;8.40;99.90;;;;;;5005705;28;20045;-73
2022/04/30 00:10:27;;;;;;;9.10;2.90;;;8.50;99.90;;;;;;5006813;28;20057;-73
2022/04/30 00:12:53;;;;;;;9.48;2.75;;;8.40;99.90;;;;;;4993292;28;20042;-72
2022/04/30 00:15:20;;;;;;;7.10;2.67;;;8.40;99.90;;;;;;5006279;28;20282;-74
2022/04/30 00:17:46;;;;;;;11.65;3.13;;;8.40;99.90;;;;;;5005756;28;20093;-73
2022/04/30 00:20:12;;;;;;;12.05;3.30;;;8.40;99.90;;;;;;5006475;28;20680;-73
2022/04/30 00:22:38;;;;;;;13.38;3.00;;;8.40;99.90;;;;;;5005987;28;20050;-74
2022/04/30 00:25:05;;;;;;;9.85;2.65;;;8.40;99.90;;;;;;4974140;28;20050;-74
2022/04/30 00:27:31;;;;;;;7.55;2.95;;;8.40;99.90;;;;;;4971525;28;20133;-74
2022/04/30 00:30:00;;;;;;;8.45;2.85;;;8.40;99.90;;;;;;4970312;28;20084;-72
2022/04/30 00:32:26;;;;;;;8.75;2.50;;;8.30;99.90;;;;;;4986789;28;20044;-73
2022/04/30 00:34:52;;;;;;;5.20;2.60;;;8.30;99.90;;;;;;4978342;28;20093;-74
2022/04/30 00:37:18;;;;;;;7.90;2.58;;;8.30;99.90;;;;;;5006082;28;20085;-73
2022/04/30 00:39:44;;;;;;;8.98;3.10;;;8.40;99.90;;;;;;5005641;28;20508;-74
2022/04/30 00:42:12;;;;;;;8.95;3.00;;;8.40;99.90;;;;;;4973409;28;20104;-74
2022/04/30 00:44:38;;;;;;;7.20;3.20;;;8.40;99.90;;;;;;4987996;28;20049;-73
2022/04/30 00:47:04;;;;;;;7.32;2.58;;;8.30;99.90;;;;;;4989032;28;20038;-74
2022/04/30 00:49:30;;;;;;;9.00;2.65;;;8.30;99.90;;;;;;4989555;28;20318;-74
2022/04/30 00:52:00;;;;;;;8.75;2.40;;;8.30;99.90;;;;;;5005501;28;20129;-74
2022/04/30 00:54:33;;;;;;;6.90;2.75;;;8.30;99.90;;;;;;5006148;28;20046;-74
2022/04/30 00:57:03;;;;;;;7.22;2.42;;;8.20;99.90;;;;;;5005447;28;20104;-73
2022/04/30 00:59:33;;;;;;;11.57;2.58;;;8.20;99.90;;;;;;5006174;28;20054;-74
2022/04/30 01:01:59;;;;;;;4.85;2.60;;;8.20;99.90;;;;;;5005128;28;20050;-73
2022/04/30 01:04:26;;;;;;;11.57;2.42;;;8.20;99.90;;;;;;5005014;28;20050;-74
2022/04/30 01:07:06;;;;;;;5.30;2.20;;;8.30;99.90;;;;;;4992673;28;20070;-74
2022/04/30 01:09:35;;;;;;;7.15;2.15;;;8.30;99.90;;;;;;4985763;28;20056;-73
2022/04/30 01:12:08;;;;;;;6.75;2.10;;;8.20;99.90;;;;;;4970280;28;20057;-74
2022/04/30 01:14:35;;;;;;;6.40;2.47;;;8.20;99.90;;;;;;4985573;28;20061;-73
2022/04/30 01:17:05;;;;;;;8.55;2.08;;;8.20;99.90;;;;;;4986925;28;20049;-74
2022/04/30 01:19:37;;;;;;;5.25;2.53;;;8.20;99.90;;;;;;4985742;28;20133;-74
2022/04/30 01:22:13;;;;;;;8.82;2.45;;;8.20;99.90;;;;;;4980460;28;20053;-73
2022/04/30 01:24:40;;;;;;;6.50;2.35;;;8.20;99.90;;;;;;4985233;28;20046;-74
2022/04/30 01:27:07;;;;;;;7.85;2.20;;;8.20;99.90;;;;;;4991503;28;20073;-74
2022/04/30 01:29:33;;;;;;;9.82;2.53;;;8.30;99.90;;;;;;5005150;28;20143;-74
2022/04/30 01:37:36;;;;;;;10.50;2.42;;;8.30;99.90;;;;;;5004392;28;20610;-74
2022/04/30 01:40:10;;;;;;;10.27;2.17;;;8.20;99.90;;;;;;5004173;28;20050;-73
2022/04/30 01:42:40;;;;;;;3.85;1.75;;;8.20;99.90;;;;;;5004869;28;20049;-74
2022/04/30 01:45:06;;;;;;;3.17;2.08;;;8.20;99.90;;;;;;4988329;28;20203;-73
2022/04/30 01:47:38;;;;;;;6.72;1.90;;;8.20;99.90;;;;;;5010556;28;20046;-73
2022/04/30 01:50:04;;;;;;;5.80;2.40;;;8.20;99.90;;;;;;5011281;28;20128;-73
2022/04/30 01:52:30;;;;;;;7.50;2.22;;;8.20;99.90;;;;;;4993814;28;20045;-75
2022/04/30 01:54:57;;;;;;;7.32;2.10;;;8.10;99.90;;;;;;5011550;28;20057;-73
2022/04/30 01:57:25;;;;;;;7.30;1.80;;;8.20;99.90;;;;;;5009943;28;20412;-74
2022/04/30 01:59:57;;;;;;;11.60;3.40;;;8.20;99.90;;;;;;5011431;28;20404;-74
2022/04/30 02:02:26;;;;;;;4.60;2.13;;;8.10;99.90;;;;;;4990275;28;20611;-73
2022/04/30 02:04:54;;;;;;;5.30;1.98;;;8.20;99.90;;;;;;4990754;28;20050;-73
2022/04/30 02:07:20;;;;;;;7.53;2.85;;;8.10;99.90;;;;;;4991391;28;20136;-72
2022/04/30 02:09:51;;;;;;;9.95;2.78;;;8.10;99.90;;;;;;4991020;28;20058;-73
2022/04/30 02:12:17;;;;;;;;;;;8.10;99.90;;;;;;4975864;28;20042;-74
2022/04/30 02:14:48;;;;;;;8.63;2.30;;;8.10;99.90;;;;;;4990568;28;20064;-74
2022/04/30 02:17:15;;;;;;;6.20;1.80;;;8.10;99.90;;;;;;5009557;28;20068;-72
2022/04/30 02:22:31;;;;;;;9.32;1.77;;;8.10;99.90;;;;;;5011560;28;20254;-73
2022/04/30 02:24:58;;;;;;;8.35;2.00;;;8.10;99.90;;;;;;5010413;28;20069;-73
2022/04/30 02:27:25;;;;;;;6.78;1.92;;;8.10;99.90;;;;;;5010153;28;20054;-74
2022/04/30 02:29:51;;;;;;;4.82;2.00;;;8.20;99.90;;;;;;5011129;28;20405;-73
2022/04/30 02:32:17;;;;;;;5.60;2.08;;;8.20;99.90;;;;;;4998433;28;20046;-74
2022/04/30 02:34:43;;;;;;;7.97;2.00;;;8.10;99.90;;;;;;4990962;28;20072;-74
2022/04/30 02:37:14;;;;;;;6.63;1.85;;;8.10;99.90;;;;;;4990821;28;20055;-74
2022/04/30 02:39:45;;;;;;;11.32;2.08;;;8.10;99.90;;;;;;4959034;28;20138;-74
2022/04/30 02:42:11;;;;;;;5.50;1.70;;;8.10;99.90;;;;;;4991156;28;20046;-74
2022/04/30 02:44:39;;;;;;;6.15;1.77;;;8.00;99.90;;;;;;4958097;28;20085;-74
2022/04/30 02:47:08;;;;;;;8.63;1.92;;;8.10;99.90;;;;;;4975040;28;20129;-73
2022/04/30 02:49:33;;;;;;;9.85;2.55;;;8.10;99.90;;;;;;4990039;28;20359;-73
2022/04/30 02:51:59;;;;;;;8.00;1.83;;;8.10;99.90;;;;;;5007299;28;20041;-73
2022/04/30 02:54:25;;;;;;;8.00;1.90;;;8.10;99.90;;;;;;4974042;28;20046;-73
2022/04/30 02:56:51;;;;;;;4.97;1.70;;;8.10;99.90;;;;;;4989694;28;20054;-74
2022/04/30 03:02:01;;;;;;;3.90;1.40;;;8.10;99.90;;;;;;4987311;28;20054;-74
2022/04/30 03:04:26;;;;;;;10.27;2.10;;;8.10;99.90;;;;;;4987820;28;20054;-73
2022/04/30 03:06:52;;;;;;;8.93;1.95;;;8.10;99.90;;;;;;4987215;28;20493;-74
2022/04/30 03:09:18;;;;;;;9.38;2.17;;;8.10;99.90;;;;;;4987264;28;20054;-74
2022/04/30 03:11:44;;;;;;;3.85;1.50;;;8.10;99.90;;;;;;4971261;28;20046;-73
2022/04/30 03:14:10;;;;;;;4.03;1.80;;;8.10;99.90;;;;;;4955077;28;20042;-73
2022/04/30 03:22:10;;;;;;;2.28;1.33;;;7.90;99.90;;;;;;5007703;28;20444;-74
2022/04/30 03:24:36;;;;;;;10.57;2.25;;;8.00;99.90;;;;;;4989927;28;20042;-74
2022/04/30 03:27:03;;;;;;;7.88;1.77;;;7.90;99.90;;;;;;4990585;28;20056;-73
2022/04/30 03:29:29;;;;;;;9.23;1.80;;;7.90;99.90;;;;;;4990200;28;20046;-74
2022/04/30 03:31:56;;;;;;;7.38;1.98;;;7.90;99.90;;;;;;4997861;28;20093;-74
2022/04/30 03:34:21;;;;;;;5.75;1.52;;;7.90;99.90;;;;;;4987262;28;20066;-73
2022/04/30 03:36:47;;;;;;;6.97;1.52;;;7.90;99.90;;;;;;4986774;28;20069;-74
2022/04/30 03:39:13;;;;;;;4.00;1.52;;;7.90;99.90;;;;;;4987576;28;20046;-74
2022/04/30 03:41:39;;;;;;;7.40;1.58;;;7.90;99.90;;;;;;4986711;28;20133;-74
2022/04/30 03:44:07;;;;;;;7.97;1.73;;;7.80;99.90;;;;;;4970791;28;20492;-74
2022/04/30 03:46:33;;;;;;;8.82;1.55;;;7.80;99.90;;;;;;4986279;28;20508;-73
2022/04/30 03:49:00;;;;;;;5.03;1.48;;;7.80;99.90;;;;;;4986834;28;20054;-74
2022/04/30 03:51:26;;;;;;;3.28;1.48;;;7.80;99.90;;;;;;4986472;28;20058;-73
2022/04/30 03:53:54;;;;;;;11.30;1.58;;;7.80;99.90;;;;;;4986655;28;20054;-74
2022/04/30 03:56:22;;;;;;;3.88;1.67;;;7.80;99.90;;;;;;5003279;28;20657;-74
2022/04/30 03:58:49;;;;;;;4.20;1.38;;;7.70;99.90;;;;;;4986646;28;20468;-73
2022/04/30 04:01:18;;;;;;;7.45;1.67;;;7.70;99.90;;;;;;4986704;28;20559;-74
2022/04/30 04:03:45;;;;;;;8.70;1.60;;;7.70;99.90;;;;;;5001371;28;20068;-75
2022/04/30 04:06:13;;;;;;;5.35;1.85;;;7.70;99.90;;;;;;5005942;28;20050;-74
2022/04/30 04:08:39;;;;;;;10.43;1.67;;;7.70;99.90;;;;;;4988807;28;20054;-74
2022/04/30 04:11:10;;;;;;;4.40;1.52;;;7.70;99.90;;;;;;5005088;28;20096;-74
2022/04/30 04:19:06;;;;;;;6.07;1.60;;;7.80;99.90;;;;;;5005390;28;20054;-72
2022/04/30 04:21:32;;;;;;;8.07;2.00;;;7.90;99.90;;;;;;5005387;28;20041;-72
2022/04/30 04:26:42;;;;;;;8.60;1.58;;;8.00;99.90;;;;;;4991601;28;20061;-72
2022/04/30 04:29:07;;;;;;;3.35;1.30;;;8.00;99.90;;;;;;5005578;28;20061;-73
2022/04/30 04:31:33;;;;;;;3.75;1.63;;;8.10;99.90;;;;;;4988494;28;20069;-72
2022/04/30 04:33:59;;;;;;;7.93;1.95;;;8.00;99.90;;;;;;4989075;28;20076;-73
2022/04/30 04:36:25;;;;;;;4.10;1.50;;;8.00;99.90;;;;;;5004886;28;20050;-72
2022/04/30 04:38:50;;;;;;;7.57;1.67;;;8.00;99.90;;;;;;5005860;28;20109;-73
2022/04/30 04:41:16;;;;;;;6.32;1.80;;;8.10;99.90;;;;;;4972461;28;20080;-72
2022/04/30 04:43:42;;;;;;;5.05;1.95;;;8.00;99.90;;;;;;5005534;28;20042;-73
2022/04/30 04:46:08;;;;;;;4.68;1.80;;;8.00;99.90;;;;;;5004708;28;20045;-73
2022/04/30 04:48:34;;;;;;;3.10;1.60;;;8.00;99.90;;;;;;5005206;28;20136;-73
2022/04/30 04:51:01;;;;;;;4.28;1.60;;;8.10;99.90;;;;;;5005121;28;20060;-72
2022/04/30 04:53:26;;;;;;;6.43;1.77;;;8.10;99.90;;;;;;4988666;28;20417;-72
2022/04/30 04:55:53;;;;;;;7.43;1.80;;;8.10;99.90;;;;;;4972857;28;20046;-73
2022/04/30 04:58:18;;;;;;;4.80;1.83;;;8.10;99.90;;;;;;5004790;28;20077;-73
2022/04/30 05:00:44;;;;;;;9.68;2.17;;;8.10;99.90;;;;;;5004839;28;20050;-73
2022/04/30 05:03:10;;;;;;;2.72;1.45;;;8.10;99.90;;;;;;4985858;28;20046;-73
2022/04/30 05:05:36;;;;;;;3.90;1.60;;;8.10;99.90;;;;;;4985213;28;20054;-72
2022/04/30 05:08:02;;;;;;;13.13;1.95;;;8.20;99.90;;;;;;4985255;28;20088;-72
2022/04/30 05:10:28;;;;;;;9.10;1.80;;;8.20;99.90;;;;;;4969118;28;20073;-73
2022/04/30 05:12:53;;;;;;;5.13;1.70;;;8.20;99.90;;;;;;4953015;28;20085;-73
2022/04/30 05:15:19;;;;;;;6.10;1.80;;;8.20;99.90;;;;;;4988231;28;20037;-72
2022/04/30 05:17:45;;;;;;;4.55;1.80;;;8.20;99.90;;;;;;5004385;28;20046;-72
2022/04/30 05:20:11;;;;;;;3.70;1.73;;;8.20;99.90;;;;;;5004290;28;20091;-72
2022/04/30 05:22:36;;;;;;;4.07;1.58;;;8.20;99.90;;;;;;5005168;28;20049;-73
2022/04/30 05:25:02;;;;;;;5.90;1.50;;;8.30;99.90;;;;;;4987544;28;20073;-71
2022/04/30 05:27:28;;;;;;;3.05;1.70;;;8.30;99.90;;;;;;5004745;28;20053;-72
2022/04/30 05:29:54;;;;;;;5.60;1.70;;;8.30;99.90;;;;;;5004368;28;20464;-72
2022/04/30 05:32:19;;;;;;;5.50;2.17;;;8.30;99.90;;;;;;4993217;28;20125;-72
2022/04/30 05:34:45;;;;;;;5.43;2.20;;;8.40;99.90;;;;;;4968540;28;20401;-72
2022/04/30 05:37:12;;;;;;;11.02;1.83;;;8.40;99.90;;;;;;4984688;28;20100;-73
2022/04/30 05:39:37;;;;;;;6.85;2.20;;;8.40;99.90;;;;;;4984913;28;20132;-72
2022/04/30 05:42:03;;;;;;;5.38;1.90;;;8.40;99.90;;;;;;4968333;28;20585;-73
2022/04/30 05:44:29;;;;;;;5.85;2.13;;;8.40;99.90;;;;;;4984604;28;20504;-72
2022/04/30 05:46:55;;;;;;;4.65;2.17;;;8.40;99.90;;;;;;4984469;28;20077;-72
2022/04/30 05:49:21;;;;;;;4.00;2.45;;;8.50;99.90;;;;;;4985111;28;20133;-72
2022/04/30 05:51:47;;;;;;;4.10;1.92;;;8.50;99.90;;;;;;4984459;28;20054;-72
2022/04/30 05:54:13;;;;;;;8.63;2.67;;;8.50;99.90;;;;;;4968330;28;20383;-72
2022/04/30 05:56:38;;;;;;;4.85;2.40;;;8.50;99.90;;;;;;5000606;28;20101;-72
2022/04/30 05:59:04;;;;;;;4.72;2.08;;;8.60;99.90;;;;;;4984660;28;20050;-73
2022/04/30 06:01:30;;;;;;;8.77;2.70;;;8.50;99.90;;;;;;4985243;28;20042;-72
2022/04/30 06:03:55;;;;;;;5.55;2.70;;;8.60;99.90;;;;;;4984198;28;20079;-72
2022/04/30 06:06:21;;;;;;;3.60;2.20;;;8.60;99.90;;;;;;4985050;28;20050;-72
2022/04/30 06:08:47;;;;;;;4.60;2.15;;;8.60;99.90;;;;;;4967732;28;20089;-72
2022/04/30 06:11:13;;;;;;;3.97;2.13;;;8.60;99.90;;;;;;4968605;28;20121;-72
2022/04/30 06:13:39;;;;;;;4.45;2.30;;;8.70;99.90;;;;;;4967633;28;20086;-72
2022/04/30 06:16:05;;;;;;;9.30;2.80;;;8.70;99.90;;;;;;4993528;28;20085;-72
2022/04/30 06:18:32;;;;;;;5.15;2.40;;;8.70;99.90;;;;;;5004596;28;20069;-72
2022/04/30 06:20:58;;;;;;;6.80;3.10;;;8.70;99.90;;;;;;4987333;28;20420;-72
2022/04/30 06:23:23;;;;;;;5.88;2.33;;;8.70;99.90;;;;;;4988113;28;20057;-73
2022/04/30 06:25:49;;;;;;;9.52;2.97;;;8.70;99.90;;;;;;5003027;28;20155;-72
2022/04/30 06:28:15;;;;;;;5.70;2.60;;;8.70;99.90;;;;;;5004202;28;20049;-72
2022/04/30 06:30:42;;;;;;;4.13;2.47;;;8.80;99.90;;;;;;5003532;28;20124;-72
2022/04/30 06:33:13;;;;;;;6.35;3.22;;;8.80;99.90;;;;;;4986394;28;20479;-72
2022/04/30 06:35:39;;;;;;;3.47;2.35;;;8.90;99.90;;;;;;4971515;28;20042;-72
2022/04/30 06:38:06;;;;;;;9.18;2.55;;;9.00;99.90;;;;;;4988006;28;20054;-72
2022/04/30 06:40:33;;;;;;;7.43;2.58;;;9.10;99.90;;;;;;4973011;28;20054;-72
2022/04/30 06:42:59;;;;;;;7.50;3.50;;;9.30;99.90;;;;;;4987159;28;20505;-72
2022/04/30 06:45:25;;;;;;;7.95;2.75;;;9.60;99.90;;;;;;4972075;28;20061;-72
2022/04/30 06:47:51;;;;;;;5.80;2.60;;;9.80;99.90;;;;;;4987554;28;20473;-72
2022/04/30 06:50:16;;;;;;;6.63;2.10;;;10.10;99.90;;;;;;4971787;28;20486;-72
2022/04/30 06:58:11;;;;;;;3.22;2.22;;;10.80;97.20;;;;;;4989786;28;20120;-72
2022/04/30 07:03:27;;;;;;;8.02;3.25;;;10.90;99.20;;;;;;5007286;28;20774;-72
2022/04/30 07:06:02;;;;;;;8.15;3.00;;;10.80;98.80;;;;;;5000305;28;20177;-72
2022/04/30 07:08:30;;;;;;;8.93;3.13;;;10.70;98.50;;;;;;4971002;28;20046;-72
2022/04/30 07:10:56;;;;;;;4.45;2.22;;;10.60;99.90;;;;;;4987790;28;20046;-72
2022/04/30 07:13:21;;;;;;;8.23;2.72;;;10.50;99.90;;;;;;4987111;28;20076;-73
2022/04/30 07:15:47;;;;;;;9.63;2.72;;;10.50;99.90;;;;;;4978243;28;20046;-72
2022/04/30 07:18:13;;;;;;;9.65;3.00;;;10.50;99.90;;;;;;4974435;28;20641;-72
2022/04/30 07:20:39;;;;;;;10.02;3.05;;;10.60;99.90;;;;;;4990048;28;20049;-73
2022/04/30 07:23:05;;;;;;;5.88;2.58;;;10.60;99.90;;;;;;5006627;28;20120;-73
2022/04/30 07:25:32;;;;;;;7.28;2.05;;;10.70;99.90;;;;;;5006356;28;20108;-73
2022/04/30 07:27:57;;;;;;;10.05;2.20;;;10.80;99.50;;;;;;5006667;28;20621;-73
2022/04/30 07:30:23;;;;;;;11.38;2.97;;;10.80;99.90;;;;;;5006085;28;20410;-72
2022/04/30 07:32:48;;;;;;;5.00;2.28;;;10.80;97.70;;;;;;4972138;28;20053;-71
2022/04/30 07:35:14;;;;;;;9.90;2.75;;;10.80;98.20;;;;;;4972670;28;20049;-73
2022/04/30 07:37:40;;;;;;;6.03;2.35;;;10.70;97.60;;;;;;5005602;28;20030;-72
2022/04/30 07:40:08;;;;;;;3.70;1.75;;;10.70;99.90;;;;;;5005643;28;20034;-72
2022/04/30 07:42:34;;;;;;;5.18;1.77;;;10.90;98.70;;;;;;5005924;28;20050;-72
2022/04/30 07:44:59;;;;;;;4.60;1.83;;;10.90;99.90;;;;;;5005225;28;20042;-72
2022/04/30 07:47:26;;;;;;;7.20;1.70;;;10.90;96.10;;;;;;4988958;28;20476;-72
2022/04/30 07:49:52;;;;;;;4.03;1.55;;;10.90;96.20;;;;;;4989121;28;20045;-73
2022/04/30 07:52:17;;;;;;;1.70;1.25;;;11.00;98.70;;;;;;5004809;28;20033;-72
2022/04/30 07:54:43;;;;;;;7.13;1.50;;;11.00;95.10;;;;;;4988948;28;20076;-72
2022/04/30 07:57:09;;;;;;;5.95;1.75;;;11.10;95.60;;;;;;4989061;28;20034;-73
2022/04/30 07:59:35;;;;;;;9.88;2.15;;;11.10;95.70;;;;;;4988553;28;20132;-73
2022/04/30 08:02:01;;;;;;;4.13;1.65;;;11.10;92.60;;;;;;4988086;28;20356;-72
2022/04/30 08:04:26;;;;;;;9.13;2.75;;;11.20;95.10;;;;;;4972392;28;20124;-72
2022/04/30 08:06:52;;;;;;;6.00;1.58;;;11.20;93.40;;;;;;5005603;28;20587;-72
2022/04/30 08:09:18;;;;;;;6.63;1.80;;;11.20;92.60;;;;;;5005604;28;20088;-72
2022/04/30 08:11:44;;;;;;;11.35;2.35;;;11.30;94.40;;;;;;5005228;28;20517;-72
2022/04/30 08:14:10;;;;;;;4.75;1.50;;;11.40;96.90;;;;;;5005216;28;20038;-73
2022/04/30 08:16:36;;;;;;;8.93;1.95;;;11.30;91.00;;;;;;5006674;28;20074;-71
2022/04/30 08:19:01;;;;;;;3.53;1.70;;;11.30;92.60;;;;;;5003360;28;20471;-72
2022/04/30 08:21:27;;;;;;;5.82;1.83;;;11.40;94.90;;;;;;4999017;28;20053;-72
2022/04/30 08:23:53;;;;;;;7.78;1.63;;;11.50;93.00;;;;;;4998206;28;20050;-72
2022/04/30 08:26:19;;;;;;;4.70;1.67;;;11.50;94.80;;;;;;5002262;28;20062;-72
2022/04/30 08:28:44;;;;;;;5.20;2.10;;;11.90;96.00;;;;;;5002338;28;20056;-72
2022/04/30 08:31:10;;;;;;;3.53;1.65;;;12.40;91.80;;;;;;4980816;28;20034;-72
2022/04/30 08:33:36;;;;;;;7.28;2.13;;;12.40;86.30;;;;;;4983396;28;20046;-72
2022/04/30 08:36:02;;;;;;;4.38;1.63;;;12.30;84.50;;;;;;4966754;28;20552;-72
2022/04/30 08:38:28;;;;;;;4.13;1.48;;;12.20;88.60;;;;;;4998399;28;20054;-73
2022/04/30 08:40:53;;;;;;;3.10;1.60;;;12.20;82.80;;;;;;5004122;28;20374;-71
2022/04/30 08:43:20;;;;;;;5.10;1.70;;;12.20;87.60;;;;;;5004258;28;20121;-71
2022/04/30 08:45:46;;;;;;;7.53;1.55;;;12.20;84.20;;;;;;5003903;28;20042;-72
2022/04/30 08:48:14;;;;;;;3.30;1.50;;;12.30;84.70;;;;;;5004696;28;20054;-71
2022/04/30 08:50:43;;;;;;;4.13;1.40;;;12.50;88.00;;;;;;4989641;28;20136;-71
2022/04/30 08:53:09;;;;;;;5.32;1.90;;;12.60;77.40;;;;;;4986412;28;20080;-71
2022/04/30 08:55:35;;;;;;;5.88;1.77;;;12.60;79.70;;;;;;5003210;28;20107;-72
2022/04/30 08:58:02;;;;;;;4.90;1.63;;;12.60;75.50;;;;;;5003961;28;20050;-72
2022/04/30 09:00:28;;;;;;;2.58;1.30;;;12.30;70.80;;;;;;4971740;28;20045;-71
2022/04/30 09:02:56;;;;;;;7.07;1.70;;;12.20;81.20;;;;;;4987775;28;20405;-72
2022/04/30 09:05:29;;;;;;;5.03;1.70;;;12.40;86.40;;;;;;5018667;28;20050;-72
2022/04/30 09:07:59;;;;;;;2.45;1.35;;;12.50;71.60;;;;;;5004936;28;20049;-72
2022/04/30 09:10:30;;;;;;;7.30;1.50;;;12.30;77.30;;;;;;4988092;28;20056;-72
2022/04/30 09:13:14;;;;;;;6.30;1.80;;;12.50;90.40;;;;;;5004822;28;20084;-72
2022/04/30 09:15:45;;;;;;;3.83;1.60;;;12.40;75.20;;;;;;4980821;28;20046;-73
2022/04/30 09:18:13;;;;;;;4.90;1.55;;;12.40;77.00;;;;;;5003791;28;20077;-73
2022/04/30 09:20:58;;;;;;;2.97;1.45;;;12.60;81.90;;;;;;5005211;28;20132;-73
2022/04/30 09:23:33;;;;;;;6.78;1.60;;;12.80;79.20;;;;;;5004739;28;20050;-73
2022/04/30 09:26:03;;;;;;;6.22;1.73;;;13.00;74.60;;;;;;5004024;28;20099;-71
2022/04/30 09:28:30;;;;;;;;;;;12.90;68.90;;;;;;5005292;28;20500;-71
2022/04/30 09:31:08;;;;;;;4.57;1.40;;;12.70;71.60;;;;;;5003658;28;19925;-72
2022/04/30 09:33:54;;;;;;;11.00;2.25;;;12.60;69.30;;;;;;5004827;28;20554;-72
2022/04/30 09:39:13;;;;;;;3.72;1.58;;;12.00;78.80;;;;;;5004001;28;20042;-72
2022/04/30 09:41:39;;;;;;;4.07;1.52;;;11.90;78.00;;;;;;5004373;28;20096;-72
2022/04/30 09:44:06;;;;;;;3.25;1.60;;;11.90;87.00;;;;;;4987657;28;20050;-72
2022/04/30 09:46:37;;;;;;;5.53;1.50;;;11.70;83.90;;;;;;5004539;28;20042;-72
2022/04/30 09:54:40;;;;;;;3.50;1.55;;;11.50;91.10;;;;;;5004524;28;20049;-72
2022/04/30 09:57:07;;;;;;;6.00;1.65;;;11.50;93.80;;;;;;5003815;28;20042;-73
2022/04/30 09:59:44;;;;;;;2.65;1.40;;;11.60;93.30;;;;;;4988332;28;20077;-72
2022/04/30 10:02:10;;;;;;;5.45;1.42;;;11.60;88.40;;;;;;4993148;28;20486;-72
2022/04/30 10:04:37;;;;;;;11.82;1.85;;;11.60;89.60;;;;;;4984842;28;20050;-73
2022/04/30 10:07:05;;;;;;;8.15;1.92;;;11.60;83.80;;;;;;4986015;28;20050;-73
2022/04/30 10:09:46;;;;;;;5.03;1.40;;;11.60;91.30;;;;;;4989851;28;20049;-73
2022/04/30 10:12:26;;;;;;;3.38;1.58;;;11.70;88.20;;;;;;5002565;28;20380;-73
2022/04/30 10:14:58;;;;;;;;;;;11.80;89.50;;;;;;5006515;28;20125;-73
2022/04/30 10:17:26;;;;;;;2.22;1.05;;;12.00;84.50;;;;;;5003604;28;20408;-73
2022/04/30 10:20:07;;;;;;;4.20;1.50;;;12.10;88.50;;;;;;5005277;28;20080;-72
2022/04/30 10:22:35;;;;;;;4.90;1.40;;;12.10;80.30;;;;;;5004190;28;20136;-72
2022/04/30 10:25:01;;;;;;;2.25;1.48;;;12.10;81.10;;;;;;5006979;28;20439;-72
2022/04/30 10:27:43;;;;;;;6.18;1.73;;;12.00;76.60;;;;;;5006950;28;20049;-72
2022/04/30 10:30:28;;;;;;;5.88;1.77;;;12.10;83.20;;;;;;5007361;28;20041;-73
2022/04/30 10:33:06;;;;;;;6.00;1.63;;;12.30;87.10;;;;;;4989903;28;20607;-70
2022/04/30 10:35:36;;;;;;;5.03;1.42;;;12.30;88.90;;;;;;5006149;28;20065;-72
2022/04/30 10:38:06;;;;;;;3.08;1.55;;;12.40;90.80;;;;;;5006771;28;20483;-71
2022/04/30 10:40:52;;;;;;;;;;;12.20;83.30;;;;;;5007391;28;20504;-72
2022/04/30 10:43:31;;;;;;;12.65;1.75;;;12.10;84.60;;;;;;4990143;28;20023;-73
2022/04/30 10:45:58;;;;;;;2.80;1.77;;;11.90;90.50;;;;;;5005495;28;20057;-73
2022/04/30 10:48:25;;;;;;;3.47;1.42;;;12.00;91.30;;;;;;5005907;28;20050;-72
2022/04/30 10:51:09;;;;;;;5.13;1.35;;;12.30;90.50;;;;;;4989956;28;20467;-72
2022/04/30 10:53:39;;;;;;;6.47;1.50;;;12.30;80.10;;;;;;5005412;28;20189;-73
2022/04/30 10:56:07;;;;;;;8.70;1.70;;;12.20;75.50;;;;;;5006437;28;20137;-73
2022/04/30 10:58:34;;;;;;;3.63;1.30;;;12.10;78.50;;;;;;4989947;28;20045;-73
2022/04/30 11:01:14;;;;;;;4.18;1.60;;;12.00;82.00;;;;;;5005088;28;20467;-74
2022/04/30 11:03:44;;;;;;;;;;;12.10;85.50;;;;;;5006178;28;20041;-73
2022/04/30 11:06:11;;;;;;;4.88;1.52;;;12.20;89.80;;;;;;4989680;28;20291;-73
2022/04/30 11:08:37;;;;;;;6.30;1.73;;;12.20;87.90;;;;;;5008000;28;20038;-72
2022/04/30 11:11:03;;;;;;;3.95;1.17;;;12.10;87.80;;;;;;5005949;28;20065;-70
2022/04/30 11:13:29;;;;;;;6.70;2.63;;;11.90;85.90;;;;;;5006701;28;20064;-69
2022/04/30 11:16:00;;;;;;;4.20;2.00;;;11.90;90.50;;;;;;5006842;28;20060;-70
2022/04/30 11:18:26;;;;;;;7.55;1.85;;;11.90;82.40;;;;;;5006179;28;20543;-69
2022/04/30 11:21:01;;;;;;;7.03;2.13;;;11.70;88.20;;;;;;5007446;28;20041;-70
2022/04/30 11:23:28;;;;;;;3.80;1.23;;;11.80;88.90;;;;;;4990799;28;20116;-70
2022/04/30 11:25:57;;;;;;;4.18;1.40;;;11.80;71.80;;;;;;5007331;28;20054;-70
2022/04/30 11:28:29;;;;;;;1.80;1.23;;;11.70;80.30;;;;;;5006986;28;20519;-69
2022/04/30 11:30:59;;;;;;;2.75;1.27;;;11.60;82.70;;;;;;4990990;28;20097;-69
2022/04/30 11:33:36;;;;;;;3.95;1.50;;;11.70;90.30;;;;;;5007358;28;20358;-69
2022/04/30 11:36:03;;;;;;;3.60;1.23;;;11.50;86.60;;;;;;4991322;28;20062;-69
2022/04/30 11:38:28;;;;;;;3.22;1.60;;;11.40;76.80;;;;;;5008755;28;20125;-69
2022/04/30 11:41:04;;;;;;;3.38;1.17;;;11.30;75.90;;;;;;5006659;28;20132;-69
2022/04/30 11:43:30;;;;;;;3.50;1.30;;;11.20;87.40;;;;;;5007326;28;20337;-69
2022/04/30 11:46:03;;;;;;;2.70;1.23;;;11.20;79.90;;;;;;5006575;28;20488;-68
2022/04/30 11:48:40;;;;;;;1.73;1.08;;;11.20;89.80;;;;;;5006768;28;20050;-69
2022/04/30 11:51:07;;;;;;;3.38;1.30;;;11.30;87.50;;;;;;5006422;28;20079;-69
2022/04/30 11:53:34;;;;;;;4.45;1.48;;;11.30;84.00;;;;;;4990280;28;20147;-69
2022/04/30 11:56:01;;;;;;;3.20;1.45;;;11.40;87.50;;;;;;5006955;28;20045;-69
2022/04/30 11:58:38;;;;;;;2.45;0.90;;;11.40;77.80;;;;;;5006240;28;20096;-69
2022/04/30 12:01:04;;;;;;;2.70;1.20;;;11.50;89.70;;;;;;5005277;28;20076;-69
2022/04/30 12:03:30;;;;;;;5.35;1.50;;;11.60;84.20;;;;;;5004936;28;20469;-69
2022/04/30 12:05:57;;;;;;;4.00;1.42;;;11.70;89.10;;;;;;5006626;28;20164;-69
2022/04/30 12:08:29;;;;;;;2.70;1.30;;;11.70;83.90;;;;;;5006001;28;20046;-69
2022/04/30 12:10:56;;;;;;;7.30;2.25;;;11.90;91.80;;;;;;4990071;28;20492;-69
2022/04/30 12:13:25;;;;;;;3.75;1.40;;;12.00;84.80;;;;;;5008070;28;20061;-69
2022/04/30 12:16:03;;;;;;;1.88;1.08;;;12.10;86.60;;;;;;4989435;28;20057;-70
2022/04/30 12:27:03;;;;;;;4.90;1.42;;;12.10;76.30;;;;;;5007862;28;20050;-69
2022/04/30 12:29:30;;;;;;;3.50;1.30;;;12.20;70.50;;;;;;5005829;28;20078;-69
2022/04/30 12:31:57;;;;;;;4.45;1.60;;;12.40;78.70;;;;;;5002133;28;20518;-69
2022/04/30 12:34:30;;;;;;;4.72;1.45;;;12.30;70.90;;;;;;5005622;28;20137;-69
2022/04/30 12:36:58;;;;;;;4.07;1.50;;;12.30;62.40;;;;;;5007306;28;20046;-69
2022/04/30 12:39:24;;;;;;;3.80;1.10;;;12.50;77.00;;;;;;5005749;28;20467;-69
2022/04/30 12:41:54;;;;;;;7.28;1.17;;;12.60;57.90;;;;;;5005364;28;20046;-69
2022/04/30 12:44:21;;;;;;;6.35;1.98;;;12.40;52.70;;;;;;5005089;28;20108;-69
2022/04/30 12:46:48;;;;;;;5.20;1.58;;;12.30;63.00;;;;;;5005210;28;20073;-68
2022/04/30 12:49:15;;;;;;;4.22;1.13;;;12.40;58.00;;;;;;5004470;28;20464;-69
2022/04/30 12:51:42;;;;;;;4.93;1.30;;;12.60;59.90;;;;;;5005001;28;20038;-69
2022/04/30 12:54:12;;;;;;;4.63;1.52;;;12.80;67.10;;;;;;5004460;28;20400;-69
2022/04/30 12:56:39;;;;;;;5.43;1.60;;;13.00;67.60;;;;;;5006316;28;20054;-69
2022/04/30 12:59:05;;;;;;;3.63;1.48;;;13.10;65.00;;;;;;5005165;28;20097;-69
2022/04/30 13:01:35;;;;;;;4.32;1.63;;;13.30;67.40;;;;;;5003792;28;20074;-68
2022/04/30 13:04:04;;;;;;;5.18;2.25;;;13.50;64.70;;;;;;5005236;28;20054;-68
2022/04/30 13:06:30;;;;;;;3.20;1.47;;;13.20;42.10;;;;;;5001995;28;20798;-69
2022/04/30 13:14:28;;;;;;;3.17;1.73;;;12.80;48.60;;;;;;5005649;28;20045;-69
2022/04/30 13:16:53;;;;;;;4.35;1.80;;;12.70;73.70;;;;;;5004953;28;20046;-68
2022/04/30 13:19:19;;;;;;;5.25;1.73;;;12.60;66.40;;;;;;5004567;28;20061;-69
2022/04/30 13:21:48;;;;;;;5.47;1.80;;;12.60;71.70;;;;;;5003947;28;20046;-69
2022/04/30 13:24:18;;;;;;;6.28;1.95;;;12.60;84.30;;;;;;5004111;28;20054;-69
2022/04/30 13:26:44;;;;;;;2.95;1.63;;;12.60;66.50;;;;;;5004681;28;20144;-68
2022/04/30 13:29:11;;;;;;;6.43;1.52;;;12.70;69.40;;;;;;5004439;28;20508;-69
2022/04/30 13:31:41;;;;;;;2.13;1.50;;;12.50;69.30;;;;;;5002239;28;21113;-68
2022/04/30 13:34:08;;;;;;;4.15;1.73;;;12.50;78.70;;;;;;5004368;28;20132;-68
2022/04/30 13:36:39;;;;;;;4.68;1.52;;;12.60;70.00;;;;;;4972245;28;20161;-67
2022/04/30 13:39:05;;;;;;;2.72;1.90;;;12.70;69.80;;;;;;4991702;28;20042;-68
2022/04/30 13:41:31;;;;;;;1.90;1.48;;;12.70;77.30;;;;;;5004540;28;20050;-68
2022/04/30 13:43:57;;;;;;;3.08;1.67;;;12.70;68.90;;;;;;4988964;28;20396;-68
2022/04/30 13:46:23;;;;;;;3.42;1.58;;;12.60;74.40;;;;;;4987639;28;20416;-68
2022/04/30 13:48:49;;;;;;;6.88;2.03;;;12.40;59.90;;;;;;5005794;28;20049;-69
2022/04/30 13:51:15;;;;;;;3.67;1.60;;;12.30;77.20;;;;;;5004419;28;20061;-68